sensor_id;sensor_type;location;lat;lon;timestamp;P1;durP1;ratioP1;P2;durP2;ratioP2
489;SDS011;231;48.120;11.576;2022-11-11T01:03:58;4.70;;;4.40;;
489;SDS011;231;48.120;11.576;2022-11-11T01:17:03;5.00;;;4.77;;
489;SDS011;231;48.120;11.576;2022-11-11T01:19:31;5.03;;;4.53;;
489;SDS011;231;48.120;11.576;2022-11-11T01:25:24;4.87;;;4.57;;
489;SDS011;231;48.120;11.576;2022-11-11T01:40:59;5.63;;;4.53;;
489;SDS011;231;48.120;11.576;2022-11-11T01:47:07;4.80;;;3.90;;
489;SDS011;231;48.120;11.576;2022-11-11T01:49:38;5.23;;;4.73;;
489;SDS011;231;48.120;11.576;2022-11-11T01:52:32;5.93;;;5.20;;
489;SDS011;231;48.120;11.576;2022-11-11T01:58:28;6.27;;;4.60;;
489;SDS011;231;48.120;11.576;2022-11-11T02:07:36;6.03;;;5.07;;
489;SDS011;231;48.120;11.576;2022-11-11T02:47:23;3.33;;;3.13;;
489;SDS011;231;48.120;11.576;2022-11-11T02:49:52;3.57;;;3.37;;
489;SDS011;231;48.120;11.576;2022-11-11T02:58:28;3.70;;;3.40;;
489;SDS011;231;48.120;11.576;2022-11-11T03:07:51;3.17;;;2.60;;
489;SDS011;231;48.120;11.576;2022-11-11T03:10:28;3.40;;;3.20;;
489;SDS011;231;48.120;11.576;2022-11-11T03:22:34;2.93;;;2.73;;
489;SDS011;231;48.120;11.576;2022-11-11T03:35:11;2.57;;;2.37;;
489;SDS011;231;48.120;11.576;2022-11-11T03:37:46;3.57;;;2.70;;
489;SDS011;231;48.120;11.576;2022-11-11T03:40:30;5.00;;;2.57;;
489;SDS011;231;48.120;11.576;2022-11-11T03:49:45;5.40;;;4.40;;
489;SDS011;231;48.120;11.576;2022-11-11T03:52:13;3.57;;;2.93;;
489;SDS011;231;48.120;11.576;2022-11-11T03:54:49;4.40;;;3.37;;
489;SDS011;231;48.120;11.576;2022-11-11T03:57:16;4.50;;;3.20;;
489;SDS011;231;48.120;11.576;2022-11-11T04:10:14;3.07;;;2.87;;
489;SDS011;231;48.120;11.576;2022-11-11T04:18:41;4.33;;;3.33;;
489;SDS011;231;48.120;11.576;2022-11-11T04:24:50;2.77;;;2.57;;
489;SDS011;231;48.120;11.576;2022-11-11T04:27:37;2.97;;;2.40;;
489;SDS011;231;48.120;11.576;2022-11-11T04:43:09;2.63;;;2.47;;
489;SDS011;231;48.120;11.576;2022-11-11T04:52:09;1.97;;;1.87;;
489;SDS011;231;48.120;11.576;2022-11-11T05:04:45;2.53;;;2.33;;
489;SDS011;231;48.120;11.576;2022-11-11T05:58:53;3.30;;;2.63;;
489;SDS011;231;48.120;11.576;2022-11-11T07:31:46;5.70;;;4.00;;
489;SDS011;231;48.120;11.576;2022-11-11T07:38:38;6.80;;;4.80;;
489;SDS011;231;48.120;11.576;2022-11-11T07:41:06;5.00;;;4.70;;
489;SDS011;231;48.120;11.576;2022-11-11T07:53:50;5.60;;;5.33;;
489;SDS011;231;48.120;11.576;2022-11-11T08:00:15;7.83;;;6.30;;
489;SDS011;231;48.120;11.576;2022-11-11T08:02:45;5.30;;;4.70;;
489;SDS011;231;48.120;11.576;2022-11-11T08:05:16;8.77;;;5.17;;
489;SDS011;231;48.120;11.576;2022-11-11T08:07:44;7.43;;;5.60;;
489;SDS011;231;48.120;11.576;2022-11-11T08:10:15;8.00;;;4.93;;
489;SDS011;231;48.120;11.576;2022-11-11T08:12:43;7.23;;;4.90;;
489;SDS011;231;48.120;11.576;2022-11-11T08:15:40;7.07;;;5.33;;
489;SDS011;231;48.120;11.576;2022-11-11T08:18:11;7.57;;;5.17;;
489;SDS011;231;48.120;11.576;2022-11-11T08:20:39;4.80;;;4.50;;
489;SDS011;231;48.120;11.576;2022-11-11T08:23:07;5.60;;;4.33;;
489;SDS011;231;48.120;11.576;2022-11-11T08:28:20;6.87;;;5.00;;
489;SDS011;231;48.120;11.576;2022-11-11T08:30:48;4.27;;;4.00;;
489;SDS011;231;48.120;11.576;2022-11-11T08:33:15;6.70;;;3.80;;
489;SDS011;231;48.120;11.576;2022-11-11T08:35:46;5.20;;;4.33;;
489;SDS011;231;48.120;11.576;2022-11-11T08:38:15;5.07;;;3.33;;
489;SDS011;231;48.120;11.576;2022-11-11T08:40:42;5.30;;;4.27;;
489;SDS011;231;48.120;11.576;2022-11-11T08:43:11;3.63;;;3.30;;
489;SDS011;231;48.120;11.576;2022-11-11T08:45:39;3.63;;;3.43;;
489;SDS011;231;48.120;11.576;2022-11-11T08:48:06;4.80;;;3.53;;
489;SDS011;231;48.120;11.576;2022-11-11T08:50:37;4.90;;;3.60;;
489;SDS011;231;48.120;11.576;2022-11-11T08:53:06;10.40;;;3.97;;
489;SDS011;231;48.120;11.576;2022-11-11T08:55:34;5.07;;;4.20;;
489;SDS011;231;48.120;11.576;2022-11-11T08:58:02;5.37;;;4.40;;
489;SDS011;231;48.120;11.576;2022-11-11T09:00:33;4.47;;;4.17;;
489;SDS011;231;48.120;11.576;2022-11-11T09:03:00;5.03;;;4.23;;
489;SDS011;231;48.120;11.576;2022-11-11T09:05:30;3.90;;;3.53;;
489;SDS011;231;48.120;11.576;2022-11-11T09:08:00;3.83;;;3.30;;
489;SDS011;231;48.120;11.576;2022-11-11T09:10:30;7.30;;;3.90;;
489;SDS011;231;48.120;11.576;2022-11-11T09:12:57;5.50;;;2.87;;
489;SDS011;231;48.120;11.576;2022-11-11T09:15:26;2.47;;;2.30;;
489;SDS011;231;48.120;11.576;2022-11-11T09:17:56;4.37;;;4.10;;
489;SDS011;231;48.120;11.576;2022-11-11T09:20:24;5.40;;;4.50;;
489;SDS011;231;48.120;11.576;2022-11-11T09:22:54;3.30;;;2.93;;
489;SDS011;231;48.120;11.576;2022-11-11T09:25:24;3.43;;;2.67;;
489;SDS011;231;48.120;11.576;2022-11-11T09:27:54;2.47;;;2.27;;
489;SDS011;231;48.120;11.576;2022-11-11T09:30:22;2.63;;;2.20;;
489;SDS011;231;48.120;11.576;2022-11-11T09:32:50;2.63;;;2.10;;
489;SDS011;231;48.120;11.576;2022-11-11T09:35:23;2.30;;;2.10;;
489;SDS011;231;48.120;11.576;2022-11-11T09:37:53;3.60;;;2.77;;
489;SDS011;231;48.120;11.576;2022-11-11T09:40:25;4.40;;;2.63;;
489;SDS011;231;48.120;11.576;2022-11-11T09:43:02;2.80;;;2.57;;
489;SDS011;231;48.120;11.576;2022-11-11T09:45:40;4.70;;;3.50;;
489;SDS011;231;48.120;11.576;2022-11-11T09:48:22;3.70;;;2.80;;
489;SDS011;231;48.120;11.576;2022-11-11T09:51:02;4.00;;;3.17;;
489;SDS011;231;48.120;11.576;2022-11-11T09:53:40;2.43;;;2.27;;
489;SDS011;231;48.120;11.576;2022-11-11T09:56:12;8.93;;;6.57;;
489;SDS011;231;48.120;11.576;2022-11-11T09:58:44;2.80;;;2.43;;
489;SDS011;231;48.120;11.576;2022-11-11T10:01:21;4.40;;;4.07;;
489;SDS011;231;48.120;11.576;2022-11-11T10:03:58;4.10;;;2.93;;
489;SDS011;231;48.120;11.576;2022-11-11T10:06:32;3.90;;;3.50;;
489;SDS011;231;48.120;11.576;2022-11-11T10:09:04;4.33;;;3.20;;
489;SDS011;231;48.120;11.576;2022-11-11T10:11:42;5.00;;;2.97;;
489;SDS011;231;48.120;11.576;2022-11-11T10:14:17;3.43;;;3.23;;
489;SDS011;231;48.120;11.576;2022-11-11T10:16:47;2.30;;;2.10;;
489;SDS011;231;48.120;11.576;2022-11-11T10:19:27;3.50;;;3.30;;
489;SDS011;231;48.120;11.576;2022-11-11T10:22:01;2.70;;;2.50;;
489;SDS011;231;48.120;11.576;2022-11-11T10:24:40;5.90;;;2.83;;
489;SDS011;231;48.120;11.576;2022-11-11T10:27:17;3.17;;;2.43;;
489;SDS011;231;48.120;11.576;2022-11-11T10:29:49;2.60;;;2.40;;
489;SDS011;231;48.120;11.576;2022-11-11T10:32:21;4.10;;;2.93;;
489;SDS011;231;48.120;11.576;2022-11-11T10:34:59;5.13;;;3.47;;
489;SDS011;231;48.120;11.576;2022-11-11T10:37:40;2.33;;;2.10;;
489;SDS011;231;48.120;11.576;2022-11-11T10:40:11;2.90;;;2.70;;
489;SDS011;231;48.120;11.576;2022-11-11T10:42:46;3.00;;;2.00;;
489;SDS011;231;48.120;11.576;2022-11-11T10:45:15;8.10;;;1.90;;
489;SDS011;231;48.120;11.576;2022-11-11T10:47:54;2.33;;;2.13;;
489;SDS011;231;48.120;11.576;2022-11-11T10:50:25;3.00;;;2.70;;
489;SDS011;231;48.120;11.576;2022-11-11T10:53:06;2.47;;;2.27;;
489;SDS011;231;48.120;11.576;2022-11-11T10:55:40;8.53;;;3.67;;
489;SDS011;231;48.120;11.576;2022-11-11T10:58:15;4.77;;;4.53;;
489;SDS011;231;48.120;11.576;2022-11-11T11:00:59;4.73;;;2.37;;
489;SDS011;231;48.120;11.576;2022-11-11T11:03:30;3.40;;;3.20;;
489;SDS011;231;48.120;11.576;2022-11-11T11:06:02;2.47;;;2.27;;
489;SDS011;231;48.120;11.576;2022-11-11T11:08:37;3.10;;;2.90;;
489;SDS011;231;48.120;11.576;2022-11-11T11:11:09;5.30;;;3.77;;
489;SDS011;231;48.120;11.576;2022-11-11T11:13:47;8.50;;;3.47;;
489;SDS011;231;48.120;11.576;2022-11-11T11:16:17;6.67;;;4.20;;
489;SDS011;231;48.120;11.576;2022-11-11T11:21:52;3.50;;;3.33;;
489;SDS011;231;48.120;11.576;2022-11-11T11:24:25;6.57;;;4.37;;
489;SDS011;231;48.120;11.576;2022-11-11T11:26:53;7.73;;;3.70;;
489;SDS011;231;48.120;11.576;2022-11-11T11:29:33;6.43;;;3.70;;
489;SDS011;231;48.120;11.576;2022-11-11T11:32:10;5.50;;;4.27;;
489;SDS011;231;48.120;11.576;2022-11-11T11:34:46;4.60;;;4.20;;
489;SDS011;231;48.120;11.576;2022-11-11T11:37:17;5.10;;;3.20;;
489;SDS011;231;48.120;11.576;2022-11-11T11:39:48;3.77;;;3.57;;
489;SDS011;231;48.120;11.576;2022-11-11T11:42:28;5.33;;;3.80;;
489;SDS011;231;48.120;11.576;2022-11-11T11:44:57;5.40;;;4.17;;
489;SDS011;231;48.120;11.576;2022-11-11T11:47:43;6.63;;;5.77;;
489;SDS011;231;48.120;11.576;2022-11-11T11:50:40;5.30;;;4.50;;
489;SDS011;231;48.120;11.576;2022-11-11T11:53:21;4.03;;;3.50;;
489;SDS011;231;48.120;11.576;2022-11-11T11:56:06;5.57;;;4.20;;
489;SDS011;231;48.120;11.576;2022-11-11T11:58:45;5.87;;;4.23;;
489;SDS011;231;48.120;11.576;2022-11-11T12:01:24;3.67;;;3.50;;
489;SDS011;231;48.120;11.576;2022-11-11T12:07:16;4.77;;;3.70;;
489;SDS011;231;48.120;11.576;2022-11-11T12:10:00;13.27;;;4.40;;
489;SDS011;231;48.120;11.576;2022-11-11T12:12:44;9.07;;;3.50;;
489;SDS011;231;48.120;11.576;2022-11-11T12:15:25;4.63;;;3.90;;
489;SDS011;231;48.120;11.576;2022-11-11T12:18:05;4.43;;;4.13;;
489;SDS011;231;48.120;11.576;2022-11-11T12:20:45;3.80;;;3.60;;
489;SDS011;231;48.120;11.576;2022-11-11T12:26:23;6.40;;;6.03;;
489;SDS011;231;48.120;11.576;2022-11-11T12:29:04;5.63;;;5.33;;
489;SDS011;231;48.120;11.576;2022-11-11T12:32:20;6.20;;;5.90;;
489;SDS011;231;48.120;11.576;2022-11-11T12:35:11;8.40;;;7.47;;
489;SDS011;231;48.120;11.576;2022-11-11T12:37:58;11.10;;;8.20;;
489;SDS011;231;48.120;11.576;2022-11-11T12:40:40;10.73;;;7.20;;
489;SDS011;231;48.120;11.576;2022-11-11T12:43:17;6.47;;;6.07;;
489;SDS011;231;48.120;11.576;2022-11-11T12:45:56;12.90;;;5.47;;
489;SDS011;231;48.120;11.576;2022-11-11T12:48:35;6.03;;;4.60;;
489;SDS011;231;48.120;11.576;2022-11-11T12:51:18;5.00;;;4.70;;
489;SDS011;231;48.120;11.576;2022-11-11T12:53:58;7.80;;;4.97;;
489;SDS011;231;48.120;11.576;2022-11-11T12:56:33;8.53;;;5.23;;
489;SDS011;231;48.120;11.576;2022-11-11T12:59:12;6.00;;;5.70;;
489;SDS011;231;48.120;11.576;2022-11-11T13:01:53;7.73;;;5.40;;
489;SDS011;231;48.120;11.576;2022-11-11T13:04:35;7.50;;;5.27;;
489;SDS011;231;48.120;11.576;2022-11-11T13:10:16;6.70;;;5.33;;
489;SDS011;231;48.120;11.576;2022-11-11T13:12:56;8.83;;;5.53;;
489;SDS011;231;48.120;11.576;2022-11-11T13:15:32;5.30;;;4.83;;
489;SDS011;231;48.120;11.576;2022-11-11T13:18:07;5.50;;;5.20;;
489;SDS011;231;48.120;11.576;2022-11-11T13:20:43;6.20;;;5.10;;
489;SDS011;231;48.120;11.576;2022-11-11T13:23:16;8.27;;;4.80;;
489;SDS011;231;48.120;11.576;2022-11-11T13:25:45;7.43;;;4.60;;
489;SDS011;231;48.120;11.576;2022-11-11T13:28:15;5.57;;;5.27;;
489;SDS011;231;48.120;11.576;2022-11-11T13:30:58;4.70;;;4.03;;
489;SDS011;231;48.120;11.576;2022-11-11T13:33:40;6.73;;;5.40;;
489;SDS011;231;48.120;11.576;2022-11-11T13:36:11;8.57;;;6.10;;
489;SDS011;231;48.120;11.576;2022-11-11T13:38:44;6.37;;;6.00;;
489;SDS011;231;48.120;11.576;2022-11-11T13:41:18;6.60;;;6.20;;
489;SDS011;231;48.120;11.576;2022-11-11T13:43:50;17.03;;;7.30;;
489;SDS011;231;48.120;11.576;2022-11-11T13:49:20;6.93;;;6.53;;
489;SDS011;231;48.120;11.576;2022-11-11T13:51:56;7.20;;;6.80;;
489;SDS011;231;48.120;11.576;2022-11-11T13:54:25;5.23;;;5.03;;
489;SDS011;231;48.120;11.576;2022-11-11T13:57:00;7.23;;;5.77;;
489;SDS011;231;48.120;11.576;2022-11-11T13:59:31;5.10;;;4.80;;
489;SDS011;231;48.120;11.576;2022-11-11T14:07:55;7.93;;;7.00;;
489;SDS011;231;48.120;11.576;2022-11-11T14:10:43;7.40;;;6.00;;
489;SDS011;231;48.120;11.576;2022-11-11T14:13:36;5.23;;;4.63;;
489;SDS011;231;48.120;11.576;2022-11-11T14:16:07;4.40;;;4.10;;
489;SDS011;231;48.120;11.576;2022-11-11T14:18:38;5.00;;;4.70;;
489;SDS011;231;48.120;11.576;2022-11-11T14:21:11;4.33;;;4.00;;
489;SDS011;231;48.120;11.576;2022-11-11T14:24:09;3.97;;;3.77;;
489;SDS011;231;48.120;11.576;2022-11-11T14:26:56;5.07;;;4.77;;
489;SDS011;231;48.120;11.576;2022-11-11T14:29:29;4.70;;;4.40;;
489;SDS011;231;48.120;11.576;2022-11-11T14:32:02;5.97;;;5.67;;
489;SDS011;231;48.120;11.576;2022-11-11T14:38:17;3.90;;;3.70;;
489;SDS011;231;48.120;11.576;2022-11-11T14:40:54;6.10;;;4.50;;
489;SDS011;231;48.120;11.576;2022-11-11T14:43:34;4.57;;;4.30;;
489;SDS011;231;48.120;11.576;2022-11-11T14:46:04;6.00;;;5.70;;
489;SDS011;231;48.120;11.576;2022-11-11T14:48:52;4.80;;;4.50;;
489;SDS011;231;48.120;11.576;2022-11-11T14:51:44;5.10;;;4.73;;
489;SDS011;231;48.120;11.576;2022-11-11T14:54:32;4.17;;;3.93;;
489;SDS011;231;48.120;11.576;2022-11-11T14:57:06;6.27;;;5.10;;
489;SDS011;231;48.120;11.576;2022-11-11T14:59:49;4.70;;;4.40;;
489;SDS011;231;48.120;11.576;2022-11-11T15:02:29;4.80;;;4.20;;
489;SDS011;231;48.120;11.576;2022-11-11T15:05:01;4.90;;;4.47;;
489;SDS011;231;48.120;11.576;2022-11-11T15:07:38;5.83;;;5.07;;
489;SDS011;231;48.120;11.576;2022-11-11T15:10:30;6.53;;;6.13;;
489;SDS011;231;48.120;11.576;2022-11-11T15:16:01;5.73;;;4.90;;
489;SDS011;231;48.120;11.576;2022-11-11T15:18:52;7.67;;;5.60;;
489;SDS011;231;48.120;11.576;2022-11-11T15:21:43;8.97;;;8.47;;
489;SDS011;231;48.120;11.576;2022-11-11T15:24:24;6.70;;;6.30;;
489;SDS011;231;48.120;11.576;2022-11-11T15:27:12;6.40;;;6.03;;
489;SDS011;231;48.120;11.576;2022-11-11T15:29:57;5.73;;;5.43;;
489;SDS011;231;48.120;11.576;2022-11-11T15:32:38;8.67;;;5.27;;
489;SDS011;231;48.120;11.576;2022-11-11T15:35:20;7.83;;;5.87;;
489;SDS011;231;48.120;11.576;2022-11-11T15:37:55;6.07;;;5.70;;
489;SDS011;231;48.120;11.576;2022-11-11T15:40:25;7.00;;;6.60;;
489;SDS011;231;48.120;11.576;2022-11-11T15:42:57;7.77;;;7.33;;
489;SDS011;231;48.120;11.576;2022-11-11T15:45:29;12.33;;;7.00;;
489;SDS011;231;48.120;11.576;2022-11-11T15:48:01;6.47;;;6.07;;
489;SDS011;231;48.120;11.576;2022-11-11T15:50:29;9.23;;;6.40;;
489;SDS011;231;48.120;11.576;2022-11-11T15:53:00;7.10;;;6.23;;
489;SDS011;231;48.120;11.576;2022-11-11T15:55:29;6.60;;;6.00;;
489;SDS011;231;48.120;11.576;2022-11-11T15:58:09;7.73;;;6.80;;
489;SDS011;231;48.120;11.576;2022-11-11T16:00:40;8.27;;;7.83;;
489;SDS011;231;48.120;11.576;2022-11-11T16:03:17;6.77;;;6.37;;
489;SDS011;231;48.120;11.576;2022-11-11T16:05:51;7.60;;;6.13;;
489;SDS011;231;48.120;11.576;2022-11-11T16:08:19;7.23;;;6.30;;
489;SDS011;231;48.120;11.576;2022-11-11T16:10:51;6.73;;;6.33;;
489;SDS011;231;48.120;11.576;2022-11-11T16:13:24;8.07;;;7.67;;
489;SDS011;231;48.120;11.576;2022-11-11T16:15:58;7.30;;;6.70;;
489;SDS011;231;48.120;11.576;2022-11-11T16:18:31;8.47;;;8.00;;
489;SDS011;231;48.120;11.576;2022-11-11T16:21:02;7.90;;;7.50;;
489;SDS011;231;48.120;11.576;2022-11-11T16:23:32;10.20;;;8.67;;
489;SDS011;231;48.120;11.576;2022-11-11T16:26:00;10.13;;;9.20;;
489;SDS011;231;48.120;11.576;2022-11-11T16:28:32;10.37;;;9.03;;
489;SDS011;231;48.120;11.576;2022-11-11T16:36:57;7.60;;;7.20;;
489;SDS011;231;48.120;11.576;2022-11-11T16:39:25;8.63;;;8.13;;
489;SDS011;231;48.120;11.576;2022-11-11T16:41:53;9.40;;;8.90;;
489;SDS011;231;48.120;11.576;2022-11-11T16:47:22;9.10;;;8.63;;
489;SDS011;231;48.120;11.576;2022-11-11T16:50:08;12.00;;;11.20;;
489;SDS011;231;48.120;11.576;2022-11-11T16:52:40;10.07;;;9.57;;
489;SDS011;231;48.120;11.576;2022-11-11T16:55:16;11.00;;;10.40;;
489;SDS011;231;48.120;11.576;2022-11-11T16:57:47;9.60;;;9.03;;
489;SDS011;231;48.120;11.576;2022-11-11T17:00:17;9.73;;;9.23;;
489;SDS011;231;48.120;11.576;2022-11-11T17:02:46;10.70;;;10.10;;
489;SDS011;231;48.120;11.576;2022-11-11T17:05:14;9.87;;;9.37;;
489;SDS011;231;48.120;11.576;2022-11-11T17:07:44;11.23;;;10.60;;
489;SDS011;231;48.120;11.576;2022-11-11T17:10:15;11.27;;;10.63;;
489;SDS011;231;48.120;11.576;2022-11-11T17:12:43;11.37;;;10.77;;
489;SDS011;231;48.120;11.576;2022-11-11T17:15:12;10.57;;;10.00;;
489;SDS011;231;48.120;11.576;2022-11-11T17:17:41;12.10;;;11.50;;
489;SDS011;231;48.120;11.576;2022-11-11T17:20:11;9.67;;;9.17;;
489;SDS011;231;48.120;11.576;2022-11-11T17:22:47;11.80;;;11.20;;
489;SDS011;231;48.120;11.576;2022-11-11T17:25:16;10.80;;;10.20;;
489;SDS011;231;48.120;11.576;2022-11-11T17:27:43;10.40;;;9.90;;
489;SDS011;231;48.120;11.576;2022-11-11T17:30:14;10.17;;;9.47;;
489;SDS011;231;48.120;11.576;2022-11-11T17:32:45;11.83;;;11.23;;
489;SDS011;231;48.120;11.576;2022-11-11T17:35:15;10.90;;;10.30;;
489;SDS011;231;48.120;11.576;2022-11-11T17:37:48;11.10;;;10.50;;
489;SDS011;231;48.120;11.576;2022-11-11T17:40:32;16.10;;;15.27;;
489;SDS011;231;48.120;11.576;2022-11-11T17:43:00;13.37;;;12.60;;
489;SDS011;231;48.120;11.576;2022-11-11T17:45:28;15.10;;;13.80;;
489;SDS011;231;48.120;11.576;2022-11-11T17:47:57;14.83;;;13.97;;
489;SDS011;231;48.120;11.576;2022-11-11T17:50:24;15.60;;;13.30;;
489;SDS011;231;48.120;11.576;2022-11-11T17:52:53;13.67;;;12.97;;
489;SDS011;231;48.120;11.576;2022-11-11T17:55:21;14.73;;;12.73;;
489;SDS011;231;48.120;11.576;2022-11-11T17:57:49;18.53;;;12.37;;
489;SDS011;231;48.120;11.576;2022-11-11T18:00:16;11.90;;;11.30;;
489;SDS011;231;48.120;11.576;2022-11-11T18:02:44;13.20;;;12.50;;
489;SDS011;231;48.120;11.576;2022-11-11T18:05:14;11.30;;;10.70;;
489;SDS011;231;48.120;11.576;2022-11-11T18:07:41;11.93;;;11.33;;
489;SDS011;231;48.120;11.576;2022-11-11T18:10:08;16.60;;;13.50;;
489;SDS011;231;48.120;11.576;2022-11-11T18:12:36;16.53;;;14.00;;
489;SDS011;231;48.120;11.576;2022-11-11T18:15:10;16.30;;;13.70;;
489;SDS011;231;48.120;11.576;2022-11-11T18:17:46;15.00;;;14.00;;
489;SDS011;231;48.120;11.576;2022-11-11T18:20:15;20.47;;;16.23;;
489;SDS011;231;48.120;11.576;2022-11-11T18:22:42;15.93;;;14.57;;
489;SDS011;231;48.120;11.576;2022-11-11T18:25:09;13.57;;;12.87;;
489;SDS011;231;48.120;11.576;2022-11-11T18:27:38;16.57;;;14.23;;
489;SDS011;231;48.120;11.576;2022-11-11T18:30:14;18.50;;;15.50;;
489;SDS011;231;48.120;11.576;2022-11-11T18:32:52;16.80;;;15.93;;
489;SDS011;231;48.120;11.576;2022-11-11T18:35:22;15.33;;;14.30;;
489;SDS011;231;48.120;11.576;2022-11-11T18:37:49;14.80;;;14.00;;
489;SDS011;231;48.120;11.576;2022-11-11T18:40:17;18.33;;;17.37;;
489;SDS011;231;48.120;11.576;2022-11-11T18:42:47;17.30;;;15.73;;
489;SDS011;231;48.120;11.576;2022-11-11T18:45:15;16.87;;;15.07;;
489;SDS011;231;48.120;11.576;2022-11-11T18:47:45;20.00;;;16.57;;
489;SDS011;231;48.120;11.576;2022-11-11T18:50:13;15.77;;;15.00;;
489;SDS011;231;48.120;11.576;2022-11-11T18:52:42;15.60;;;14.80;;
489;SDS011;231;48.120;11.576;2022-11-11T18:55:09;19.50;;;14.73;;
489;SDS011;231;48.120;11.576;2022-11-11T18:57:36;18.13;;;17.23;;
489;SDS011;231;48.120;11.576;2022-11-11T19:00:04;19.67;;;17.17;;
489;SDS011;231;48.120;11.576;2022-11-11T19:02:36;23.13;;;17.23;;
489;SDS011;231;48.120;11.576;2022-11-11T19:05:05;20.13;;;19.13;;
489;SDS011;231;48.120;11.576;2022-11-11T19:14:17;21.93;;;17.83;;
489;SDS011;231;48.120;11.576;2022-11-11T19:16:54;15.00;;;14.00;;
489;SDS011;231;48.120;11.576;2022-11-11T19:19:23;16.07;;;15.13;;
489;SDS011;231;48.120;11.576;2022-11-11T19:21:51;15.80;;;14.20;;
489;SDS011;231;48.120;11.576;2022-11-11T19:24:28;20.87;;;16.73;;
489;SDS011;231;48.120;11.576;2022-11-11T20:08:20;18.97;;;18.00;;
489;SDS011;231;48.120;11.576;2022-11-11T21:26:50;19.30;;;18.23;;
489;SDS011;231;48.120;11.576;2022-11-11T21:29:20;15.77;;;14.97;;
489;SDS011;231;48.120;11.576;2022-11-11T21:31:48;23.43;;;18.13;;
489;SDS011;231;48.120;11.576;2022-11-11T21:34:33;16.30;;;15.50;;
489;SDS011;231;48.120;11.576;2022-11-11T21:37:00;17.97;;;17.07;;
489;SDS011;231;48.120;11.576;2022-11-11T21:39:32;21.93;;;18.20;;
489;SDS011;231;48.120;11.576;2022-11-11T21:42:16;17.23;;;15.87;;
489;SDS011;231;48.120;11.576;2022-11-11T21:45:04;20.60;;;19.27;;
489;SDS011;231;48.120;11.576;2022-11-11T21:58:48;20.00;;;19.00;;
489;SDS011;231;48.120;11.576;2022-11-11T22:01:23;20.93;;;19.90;;
489;SDS011;231;48.120;11.576;2022-11-11T22:03:51;19.43;;;18.40;;
489;SDS011;231;48.120;11.576;2022-11-11T22:06:20;22.20;;;19.53;;
489;SDS011;231;48.120;11.576;2022-11-11T22:08:49;20.50;;;19.50;;
489;SDS011;231;48.120;11.576;2022-11-11T22:11:19;22.10;;;18.67;;
489;SDS011;231;48.120;11.576;2022-11-11T22:13:48;17.90;;;17.00;;
489;SDS011;231;48.120;11.576;2022-11-11T22:16:17;15.57;;;14.77;;
489;SDS011;231;48.120;11.576;2022-11-11T22:18:45;16.03;;;13.97;;
489;SDS011;231;48.120;11.576;2022-11-11T22:21:13;16.17;;;15.37;;
489;SDS011;231;48.120;11.576;2022-11-11T22:23:44;17.27;;;15.37;;
489;SDS011;231;48.120;11.576;2022-11-11T22:26:13;13.30;;;12.60;;
489;SDS011;231;48.120;11.576;2022-11-11T22:28:41;17.60;;;14.40;;
489;SDS011;231;48.120;11.576;2022-11-11T22:31:10;15.33;;;14.30;;
489;SDS011;231;48.120;11.576;2022-11-11T22:33:39;17.50;;;16.47;;
489;SDS011;231;48.120;11.576;2022-11-11T22:36:08;16.33;;;15.53;;
489;SDS011;231;48.120;11.576;2022-11-11T22:38:37;20.00;;;19.00;;
489;SDS011;231;48.120;11.576;2022-11-11T22:41:06;20.43;;;17.90;;
489;SDS011;231;48.120;11.576;2022-11-11T22:43:34;17.33;;;16.43;;
489;SDS011;231;48.120;11.576;2022-11-11T22:46:02;19.67;;;18.53;;
489;SDS011;231;48.120;11.576;2022-11-11T22:48:33;20.50;;;18.27;;
489;SDS011;231;48.120;11.576;2022-11-11T22:51:04;19.00;;;16.80;;
489;SDS011;231;48.120;11.576;2022-11-11T22:53:31;22.70;;;18.50;;
489;SDS011;231;48.120;11.576;2022-11-11T22:56:02;19.27;;;18.27;;
489;SDS011;231;48.120;11.576;2022-11-11T22:58:29;21.00;;;18.67;;
489;SDS011;231;48.120;11.576;2022-11-11T23:01:00;20.30;;;19.30;;
489;SDS011;231;48.120;11.576;2022-11-11T23:03:36;19.50;;;18.50;;
489;SDS011;231;48.120;11.576;2022-11-11T23:06:09;21.23;;;20.13;;
489;SDS011;231;48.120;11.576;2022-11-11T23:08:38;19.93;;;18.93;;
489;SDS011;231;48.120;11.576;2022-11-11T23:11:06;20.10;;;19.10;;
489;SDS011;231;48.120;11.576;2022-11-11T23:13:35;28.63;;;19.40;;
489;SDS011;231;48.120;11.576;2022-11-11T23:16:03;18.80;;;17.90;;
489;SDS011;231;48.120;11.576;2022-11-11T23:18:31;19.20;;;18.20;;
489;SDS011;231;48.120;11.576;2022-11-11T23:21:00;22.17;;;17.70;;
489;SDS011;231;48.120;11.576;2022-11-11T23:23:30;17.33;;;16.43;;
489;SDS011;231;48.120;11.576;2022-11-11T23:25:59;18.47;;;17.57;;
489;SDS011;231;48.120;11.576;2022-11-11T23:28:27;21.60;;;17.63;;
489;SDS011;231;48.120;11.576;2022-11-11T23:30:59;17.67;;;16.43;;
489;SDS011;231;48.120;11.576;2022-11-11T23:33:28;14.77;;;14.00;;
489;SDS011;231;48.120;11.576;2022-11-11T23:35:57;15.17;;;13.73;;
489;SDS011;231;48.120;11.576;2022-11-11T23:38:26;12.97;;;12.27;;
489;SDS011;231;48.120;11.576;2022-11-11T23:40:54;19.07;;;16.40;;
489;SDS011;231;48.120;11.576;2022-11-11T23:43:21;14.93;;;14.13;;
489;SDS011;231;48.120;11.576;2022-11-11T23:45:48;14.77;;;13.97;;
489;SDS011;231;48.120;11.576;2022-11-11T23:48:16;15.70;;;11.13;;
489;SDS011;231;48.120;11.576;2022-11-11T23:50:43;15.10;;;13.70;;
489;SDS011;231;48.120;11.576;2022-11-11T23:53:11;15.97;;;14.23;;
489;SDS011;231;48.120;11.576;2022-11-11T23:55:38;13.90;;;13.20;;
489;SDS011;231;48.120;11.576;2022-11-11T23:58:05;15.40;;;14.60;;
